Clemente Onelli, Argentina
Current Conditions -  °F | °C
As of 12:00 AM on Saturday 20 Dec 2014 (Local Time) from SAZS Reporting Station
Rain Showers Rain Showers  
Wind Chill: -2°   Ceiling: 1800
Heat Index:   Visibility: 6mi
Dew Point: -3°   Wind: 25mph
Humidity: 61%   Direction: 320°NW
Pressure: 29.8"   Gusts: NA
Location:  41.13°S, 70.58°W
Report Text: SAZS 200300Z 32022KT 9999 VCSH BKN018SCT040 04/M03 Q1009
Loading
Personal Weather Stations






























Interactive Weather Map New forecast layout! Learn more

10-Day Weather Forecast

Advertisements
Track Severe Weather on mobile